Time;durP1;ratioP1;P1;durP2;ratioP2;P2;SDS_P1;SDS_P2;PMS_P1;PMS_P2;Temp;Humidity;BMP_temperature;BMP_pressure;BME280_temperature;BME280_humidity;BME280_pressure;Samples;Min_cycle;Max_cycle;Signal;HPM_P1;HPM_P2
2023/05/07 00:02:28;;;;;;;3.20;1.90;;;16.20;1.00;;;;;;5119016;27;20524;-78
2023/05/07 00:05:24;;;;;;;4.10;2.30;;;16.20;1.00;;;;;;5121742;27;20174;-78
2023/05/07 00:08:07;;;;;;;3.43;2.00;;;16.20;1.00;;;;;;5116496;28;20403;-78
2023/05/07 00:11:06;;;;;;;1.83;1.73;;;16.10;1.00;;;;;;5116381;28;20885;-78
2023/05/07 00:13:43;;;;;;;5.53;2.00;;;16.20;1.00;;;;;;5117768;27;20420;-79
2023/05/07 00:16:19;;;;;;;2.83;1.90;;;16.10;1.00;;;;;;5136989;27;20781;-78
2023/05/07 00:18:45;;;;;;;2.77;1.80;;;16.10;1.00;;;;;;5116521;28;20479;-74
2023/05/07 00:21:11;;;;;;;2.17;2.03;;;16.20;1.00;;;;;;5115942;27;20423;-74
2023/05/07 00:23:36;;;;;;;13.20;2.27;;;16.10;1.00;;;;;;5116331;28;20628;-75
2023/05/07 00:26:07;;;;;;;3.37;1.80;;;16.20;1.00;;;;;;5117025;27;20172;-74
2023/05/07 00:28:33;;;;;;;4.73;2.10;;;16.20;1.00;;;;;;5116984;27;20183;-74
2023/05/07 00:30:59;;;;;;;2.00;1.80;;;16.20;1.00;;;;;;5116067;28;20400;-74
2023/05/07 00:33:26;;;;;;;7.10;1.90;;;16.30;1.00;;;;;;5116428;28;20212;-74
2023/05/07 00:35:55;;;;;;;3.50;2.27;;;16.20;1.00;;;;;;5115981;28;20546;-74
2023/05/07 00:38:21;;;;;;;2.20;2.00;;;16.20;1.00;;;;;;5117511;27;20456;-74
2023/05/07 00:40:46;;;;;;;2.07;1.87;;;16.20;1.00;;;;;;5115904;28;20376;-74
2023/05/07 00:43:13;;;;;;;5.17;1.97;;;16.20;1.00;;;;;;5115798;28;20191;-74
2023/05/07 00:45:39;;;;;;;3.90;2.20;;;16.20;1.00;;;;;;5115674;28;20151;-74
2023/05/07 00:48:31;;;;;;;8.67;2.10;;;16.20;1.00;;;;;;5115751;28;20890;-78
2023/05/07 00:51:13;;;;;;;4.00;1.80;;;16.20;1.00;;;;;;5115722;28;20436;-78
2023/05/07 00:54:07;;;;;;;2.33;2.13;;;16.20;1.00;;;;;;5115233;28;20411;-78
2023/05/07 00:56:54;;;;;;;3.80;2.10;;;16.20;1.00;;;;;;5115200;28;20441;-78
2023/05/07 00:59:54;;;;;;;2.17;1.90;;;16.10;1.00;;;;;;5115146;27;20452;-78
2023/05/07 01:02:48;;;;;;;3.40;2.17;;;16.10;1.00;;;;;;5115101;28;20401;-78
2023/05/07 01:05:21;;;;;;;3.90;2.30;;;16.10;1.00;;;;;;5115915;28;20367;-78
2023/05/07 01:08:03;;;;;;;2.60;2.17;;;16.10;1.00;;;;;;5097179;27;20908;-78
2023/05/07 01:13:51;;;;;;;5.63;2.43;;;16.10;1.00;;;;;;5114875;28;20419;-78
2023/05/07 01:16:25;;;;;;;2.60;2.40;;;16.10;1.00;;;;;;5115179;28;20378;-78
2023/05/07 01:19:01;;;;;;;2.30;2.10;;;16.10;1.00;;;;;;5122998;27;20799;-78
2023/05/07 01:21:47;;;;;;;2.83;2.30;;;16.00;1.00;;;;;;5130981;27;20408;-78
2023/05/07 01:24:25;;;;;;;3.83;2.27;;;16.00;1.00;;;;;;5115029;28;20381;-78
2023/05/07 01:26:51;;;;;;;2.37;1.67;;;16.00;1.00;;;;;;5114749;28;20405;-78
2023/05/07 01:29:19;;;;;;;4.00;2.10;;;16.00;1.00;;;;;;5122217;27;20519;-79
2023/05/07 01:31:51;;;;;;;5.70;2.33;;;16.00;1.00;;;;;;5131452;27;20185;-78
2023/05/07 01:34:55;;;;;;;3.93;2.10;;;16.00;1.00;;;;;;5135704;27;20421;-78
2023/05/07 01:37:22;;;;;;;4.47;2.20;;;15.90;1.00;;;;;;5114904;28;20367;-78
2023/05/07 01:39:56;;;;;;;2.37;2.17;;;15.90;1.00;;;;;;5101964;28;20954;-78
2023/05/07 01:42:22;;;;;;;4.23;2.30;;;15.90;1.00;;;;;;5131701;27;20430;-79
2023/05/07 01:44:48;;;;;;;3.43;2.20;;;15.90;1.00;;;;;;5118829;27;20406;-78
2023/05/07 01:47:14;;;;;;;3.47;2.17;;;15.90;1.00;;;;;;5108345;27;20493;-78
2023/05/07 01:49:40;;;;;;;9.23;2.30;;;15.90;1.00;;;;;;5116824;27;20468;-78
2023/05/07 01:52:06;;;;;;;2.47;2.27;;;15.90;1.00;;;;;;5114748;28;20363;-78
2023/05/07 01:55:00;;;;;;;2.47;2.23;;;16.00;1.00;;;;;;5114692;28;20384;-78
2023/05/07 01:57:48;;;;;;;2.50;2.20;;;15.90;1.00;;;;;;5114596;28;20434;-78
2023/05/07 02:00:25;;;;;;;2.90;2.47;;;15.90;1.00;;;;;;5123439;27;20503;-79
2023/05/07 02:02:52;;;;;;;2.30;1.97;;;15.90;1.00;;;;;;5132767;27;20363;-78
2023/05/07 02:08:39;;;;;;;3.60;2.10;;;15.80;1.00;;;;;;5127835;27;20511;-78
2023/05/07 02:11:07;;;;;;;7.57;2.20;;;15.90;1.00;;;;;;5118769;28;20524;-78
2023/05/07 02:13:36;;;;;;;6.47;2.37;;;15.80;1.00;;;;;;5095991;28;20167;-78
2023/05/07 02:19:25;;;;;;;2.23;2.03;;;15.70;1.00;;;;;;5114560;28;20438;-75
2023/05/07 02:21:51;;;;;;;2.00;1.80;;;15.70;1.00;;;;;;5114233;28;20466;-74
2023/05/07 02:24:16;;;;;;;2.13;1.93;;;15.70;1.00;;;;;;5096015;28;20428;-75
2023/05/07 02:26:42;;;;;;;5.10;2.20;;;15.70;1.00;;;;;;5118409;28;20427;-75
2023/05/07 02:29:08;;;;;;;2.57;2.37;;;15.70;1.00;;;;;;5127062;27;20189;-74
2023/05/07 02:31:37;;;;;;;5.57;1.93;;;15.60;1.00;;;;;;5138991;27;20602;-74
2023/05/07 02:34:03;;;;;;;5.10;2.33;;;15.70;1.00;;;;;;5138495;27;20180;-75
2023/05/07 02:36:29;;;;;;;4.40;2.57;;;15.70;1.00;;;;;;5136516;27;20803;-74
2023/05/07 02:39:02;;;;;;;4.87;2.50;;;15.60;1.00;;;;;;5106409;27;20458;-74
2023/05/07 02:41:28;;;;;;;3.60;2.03;;;15.60;1.00;;;;;;5138868;27;20147;-74
2023/05/07 02:43:54;;;;;;;3.20;2.50;;;15.60;1.00;;;;;;5138680;27;20863;-74
2023/05/07 02:46:19;;;;;;;4.50;2.27;;;15.60;1.00;;;;;;5138680;27;20385;-74
2023/05/07 02:48:45;;;;;;;3.50;2.10;;;15.60;1.00;;;;;;5101492;28;20323;-74
2023/05/07 02:51:11;;;;;;;3.90;2.50;;;15.60;1.00;;;;;;5118224;28;20209;-74
2023/05/07 02:53:36;;;;;;;4.53;2.50;;;15.60;1.00;;;;;;5137919;27;20173;-74
2023/05/07 02:56:07;;;;;;;7.90;2.10;;;15.60;1.00;;;;;;5136944;27;20200;-74
2023/05/07 02:58:32;;;;;;;2.37;2.17;;;15.60;1.00;;;;;;5122869;27;20653;-75
2023/05/07 03:00:58;;;;;;;2.77;2.53;;;15.60;1.00;;;;;;5117655;27;20525;-74
2023/05/07 03:03:24;;;;;;;2.50;2.30;;;15.50;1.00;;;;;;5119483;27;20217;-75
2023/05/07 03:05:50;;;;;;;2.93;2.00;;;15.50;1.00;;;;;;5099738;28;20417;-74
2023/05/07 03:08:16;;;;;;;2.50;2.30;;;15.50;1.00;;;;;;5117221;28;20185;-74
2023/05/07 03:10:43;;;;;;;2.30;2.20;;;15.50;1.00;;;;;;5117584;28;20392;-74
2023/05/07 03:13:13;;;;;;;3.73;2.10;;;15.50;1.00;;;;;;5117661;28;20170;-74
2023/05/07 03:15:43;;;;;;;3.87;2.50;;;15.50;1.00;;;;;;5136095;27;20948;-74
2023/05/07 03:18:09;;;;;;;4.53;2.67;;;15.50;1.00;;;;;;5129736;27;20439;-74
2023/05/07 03:20:49;;;;;;;4.03;3.10;;;15.50;1.00;;;;;;5124654;27;20398;-79
2023/05/07 03:23:25;;;;;;;4.70;2.60;;;15.40;1.00;;;;;;5137833;27;20238;-78
2023/05/07 03:25:51;;;;;;;6.30;2.20;;;15.40;1.00;;;;;;5137008;27;20393;-78
2023/05/07 03:35:00;;;;;;;4.53;2.83;;;15.30;1.00;;;;;;5129170;27;20390;-88
2023/05/07 03:38:06;;;;;;;5.10;2.83;;;15.30;1.00;;;;;;5125144;27;20436;-88
2023/05/07 03:43:53;;;;;;;3.10;2.40;;;15.30;1.00;;;;;;5117561;27;20399;-89
2023/05/07 03:49:44;;;;;;;3.03;2.77;;;15.20;1.00;;;;;;5126844;27;20223;-87
2023/05/07 03:52:25;;;;;;;2.47;2.33;;;15.20;1.00;;;;;;5116944;28;20443;-85
2023/05/07 03:58:25;;;;;;;4.13;2.20;;;15.10;1.00;;;;;;5137347;27;20437;-84
2023/05/07 04:01:25;;;;;;;2.80;2.50;;;15.10;1.00;;;;;;5116682;28;20401;-85
2023/05/07 04:04:43;;;;;;;2.87;2.53;;;15.10;1.00;;;;;;5116504;28;20543;-84
2023/05/07 04:13:52;;;;;;;4.33;3.13;;;15.00;1.00;;;;;;5116746;28;20367;-84
2023/05/07 04:19:44;;;;;;;3.20;2.53;;;14.90;1.00;;;;;;5123311;27;20221;-84
2023/05/07 04:22:48;;;;;;;5.50;2.57;;;14.90;1.00;;;;;;5117461;28;20391;-88
2023/05/07 04:28:36;;;;;;;3.33;2.80;;;14.90;1.00;;;;;;5116499;28;20827;-88
2023/05/07 04:41:25;;;;;;;3.23;2.30;;;15.00;1.00;;;;;;5116333;28;20467;-88
2023/05/07 04:44:16;;;;;;;10.43;3.60;;;15.00;1.00;;;;;;5098744;28;20394;-88
2023/05/07 04:50:06;;;;;;;2.73;2.23;;;15.10;1.00;;;;;;5117204;27;20529;-88
2023/05/07 04:52:38;;;;;;;2.90;2.70;;;15.20;1.00;;;;;;5135741;27;20438;-84
2023/05/07 04:58:25;;;;;;;4.40;2.20;;;15.30;1.00;;;;;;5115895;27;20463;-84
2023/05/07 05:00:51;;;;;;;7.97;2.93;;;15.30;1.00;;;;;;5115502;28;20391;-84
2023/05/07 05:06:39;;;;;;;6.10;3.53;;;15.40;1.00;;;;;;5135573;27;20369;-88
2023/05/07 05:09:55;;;;;;;3.13;2.77;;;15.60;1.00;;;;;;5097784;28;20432;-89
2023/05/07 05:16:01;;;;;;;4.50;2.67;;;15.70;1.00;;;;;;5115777;28;20838;-88
2023/05/07 05:18:37;;;;;;;4.00;2.93;;;15.80;1.00;;;;;;5097385;28;20954;-88
2023/05/07 05:21:55;;;;;;;5.00;3.13;;;15.90;1.00;;;;;;5102081;28;20777;-85
2023/05/07 05:24:49;;;;;;;3.50;2.43;;;16.10;1.00;;;;;;5106546;27;20439;-84
2023/05/07 05:31:13;;;;;;;6.23;2.37;;;16.30;1.00;;;;;;5117223;27;20465;-84
2023/05/07 05:44:03;;;;;;;4.90;2.80;;;16.90;1.00;;;;;;5116477;27;20404;-89
2023/05/07 05:49:51;;;;;;;3.47;3.17;;;17.10;1.00;;;;;;5115042;28;20196;-88
2023/05/07 05:52:32;;;;;;;2.70;2.50;;;17.20;1.00;;;;;;5097122;28;20876;-85
2023/05/07 05:55:49;;;;;;;2.70;2.50;;;17.40;1.00;;;;;;5117293;27;20189;-84
2023/05/07 06:01:36;;;;;;;3.37;2.37;;;17.70;1.00;;;;;;5134069;27;20470;-84
2023/05/07 06:04:07;;;;;;;8.53;2.70;;;17.80;1.00;;;;;;5133967;27;20410;-84
2023/05/07 06:09:55;;;;;;;2.77;2.47;;;18.00;1.00;;;;;;5114509;28;20889;-84
2023/05/07 06:12:31;;;;;;;5.57;2.40;;;18.20;1.00;;;;;;5096233;28;20857;-84
2023/05/07 06:18:19;;;;;;;2.67;2.37;;;18.50;1.00;;;;;;5114247;28;20412;-84
2023/05/07 06:20:55;;;;;;;4.47;2.90;;;18.60;1.00;;;;;;5110414;28;20430;-84
2023/05/07 06:26:43;;;;;;;4.87;2.70;;;18.80;1.00;;;;;;5114747;28;20468;-90
2023/05/07 06:33:19;;;;;;;2.73;2.47;;;19.00;1.00;;;;;;5113238;28;20247;-89
2023/05/07 06:36:01;;;;;;;3.30;2.87;;;19.20;1.00;;;;;;5109941;28;20443;-88
2023/05/07 06:58:38;;;;;;;2.87;2.67;;;19.50;1.00;;;;;;5113970;28;20497;-84
2023/05/07 07:04:25;;;;;;;3.00;2.80;;;19.40;1.00;;;;;;5113969;28;20181;-83
2023/05/07 07:13:35;;;;;;;5.73;3.00;;;19.70;1.00;;;;;;5114434;28;20422;-89
2023/05/07 07:19:23;;;;;;;3.20;2.90;;;20.10;1.00;;;;;;5130154;27;20223;-89
2023/05/07 07:26:00;;;;;;;3.57;2.53;;;20.30;1.00;;;;;;5124241;27;20299;-89
2023/05/07 07:31:56;;;;;;;2.73;2.53;;;20.50;1.00;;;;;;5118262;27;20795;-89
2023/05/07 07:38:30;;;;;;;3.47;3.13;;;20.80;1.00;;;;;;5116987;27;20886;-89
2023/05/07 07:41:31;;;;;;;2.90;2.70;;;20.90;1.00;;;;;;5099460;28;20437;-89
2023/05/07 07:44:43;;;;;;;2.90;2.70;;;21.10;1.00;;;;;;5117449;27;20433;-89
2023/05/07 07:50:30;;;;;;;9.00;3.10;;;21.80;1.00;;;;;;5118249;27;20441;-89
2023/05/07 07:53:19;;;;;;;4.90;3.00;;;21.70;1.00;;;;;;5122044;27;20479;-89
2023/05/07 07:55:55;;;;;;;2.87;2.67;;;21.90;1.00;;;;;;5127564;27;20175;-86
2023/05/07 08:05:04;;;;;;;4.17;2.87;;;21.90;1.00;;;;;;5137782;27;20364;-86
2023/05/07 08:07:51;;;;;;;3.27;3.00;;;22.10;1.00;;;;;;5119831;27;20401;-86
2023/05/07 08:14:30;;;;;;;3.30;3.10;;;22.30;1.00;;;;;;5128048;27;20413;-87
2023/05/07 08:24:18;;;;;;;3.37;3.13;;;23.00;1.00;;;;;;5116547;28;20396;-83
2023/05/07 08:26:44;;;;;;;3.87;2.80;;;22.70;1.00;;;;;;5115278;28;20401;-83
2023/05/07 08:29:25;;;;;;;2.83;2.63;;;22.80;1.00;;;;;;5116137;28;20386;-83
2023/05/07 08:31:51;;;;;;;3.87;3.50;;;23.00;1.00;;;;;;5097800;27;20404;-83
2023/05/07 08:34:43;;;;;;;4.07;3.30;;;22.90;1.00;;;;;;5118142;27;20744;-83
2023/05/07 08:40:36;;;;;;;4.93;2.83;;;22.80;1.00;;;;;;5115741;28;20437;-83
2023/05/07 08:43:05;;;;;;;3.30;3.00;;;22.80;1.00;;;;;;5097322;28;20458;-83
2023/05/07 08:45:33;;;;;;;3.00;2.80;;;22.60;1.00;;;;;;5115725;28;20781;-83
2023/05/07 08:48:03;;;;;;;3.20;2.90;;;22.70;1.00;;;;;;5097492;28;20401;-80
2023/05/07 08:50:29;;;;;;;3.13;2.93;;;22.90;1.00;;;;;;5106561;27;20460;-79
2023/05/07 08:52:56;;;;;;;3.23;3.00;;;23.20;1.00;;;;;;5136592;27;20402;-74
2023/05/07 08:55:23;;;;;;;3.80;3.50;;;23.30;1.00;;;;;;5131034;27;20479;-74
2023/05/07 08:57:49;;;;;;;3.53;3.13;;;23.30;1.00;;;;;;5115409;28;20399;-75
2023/05/07 09:00:16;;;;;;;3.40;3.03;;;23.60;1.00;;;;;;5115511;28;20788;-74
2023/05/07 09:02:42;;;;;;;3.30;3.10;;;23.60;1.00;;;;;;5115442;28;20391;-75
2023/05/07 09:05:08;;;;;;;3.60;3.33;;;23.90;1.00;;;;;;5115741;27;21031;-75
2023/05/07 09:07:33;;;;;;;3.67;3.27;;;24.00;1.00;;;;;;5135765;27;20384;-74
2023/05/07 09:10:04;;;;;;;3.20;3.00;;;24.20;1.00;;;;;;5115466;27;20517;-74
2023/05/07 09:12:30;;;;;;;3.83;3.43;;;24.40;1.00;;;;;;5096559;28;20186;-74
2023/05/07 09:14:56;;;;;;;3.30;2.80;;;24.50;1.00;;;;;;5115334;28;20784;-75
2023/05/07 09:17:21;;;;;;;3.77;3.27;;;24.40;1.00;;;;;;5115129;28;20390;-75
2023/05/07 09:19:47;;;;;;;4.67;3.20;;;24.70;1.00;;;;;;5114589;28;20200;-74
2023/05/07 09:22:13;;;;;;;3.87;3.43;;;24.90;1.00;;;;;;5115177;28;20211;-74
2023/05/07 09:24:55;;;;;;;3.80;3.50;;;24.90;1.00;;;;;;5097470;28;20167;-79
2023/05/07 09:27:43;;;;;;;5.57;3.53;;;24.90;1.00;;;;;;5114661;28;20727;-79
2023/05/07 09:30:09;;;;;;;3.40;3.20;;;25.00;1.00;;;;;;5114784;28;20430;-80
2023/05/07 09:32:43;;;;;;;3.40;3.10;;;25.20;1.00;;;;;;5096368;28;20780;-80
2023/05/07 09:35:27;;;;;;;4.27;3.40;;;25.40;1.00;;;;;;5114748;28;20391;-79
2023/05/07 09:38:02;;;;;;;3.33;2.57;;;25.60;1.00;;;;;;5114659;28;20390;-80
2023/05/07 09:44:31;;;;;;;4.43;3.70;;;25.50;1.00;;;;;;5114594;28;20521;-80
2023/05/07 09:47:04;;;;;;;3.53;3.23;;;25.40;1.00;;;;;;5120595;27;20506;-80
2023/05/07 09:49:35;;;;;;;3.27;3.07;;;25.50;1.00;;;;;;5116658;27;20405;-80
2023/05/07 09:52:14;;;;;;;3.03;2.83;;;25.50;1.00;;;;;;5134902;27;20435;-80
2023/05/07 09:54:45;;;;;;;3.57;3.00;;;25.50;1.00;;;;;;5135342;27;20453;-74
2023/05/07 09:57:14;;;;;;;3.10;2.90;;;25.50;1.00;;;;;;5135001;27;20902;-74
2023/05/07 09:59:45;;;;;;;3.20;2.90;;;25.50;1.00;;;;;;5114326;28;20468;-75
2023/05/07 10:02:13;;;;;;;3.13;2.93;;;25.60;1.00;;;;;;5114429;28;20427;-74
2023/05/07 10:04:40;;;;;;;3.23;3.03;;;25.70;1.00;;;;;;5114424;28;20402;-75
2023/05/07 10:07:08;;;;;;;3.20;2.90;;;25.60;1.00;;;;;;5114103;28;20893;-75
2023/05/07 10:09:39;;;;;;;4.73;2.67;;;25.70;1.00;;;;;;5114250;28;20438;-75
2023/05/07 10:12:06;;;;;;;4.17;2.90;;;25.60;1.00;;;;;;5114243;28;20477;-74
2023/05/07 10:14:32;;;;;;;3.13;2.93;;;25.60;1.00;;;;;;5114192;28;20441;-75
2023/05/07 10:16:59;;;;;;;3.20;3.00;;;25.60;1.00;;;;;;5114294;28;20826;-74
2023/05/07 10:19:25;;;;;;;6.20;3.23;;;25.60;1.00;;;;;;5114079;28;20447;-74
2023/05/07 10:22:04;;;;;;;3.40;3.10;;;25.70;1.00;;;;;;5113940;28;20464;-75
2023/05/07 10:24:33;;;;;;;3.80;2.97;;;25.70;1.00;;;;;;5114392;28;20387;-75
2023/05/07 10:27:02;;;;;;;3.07;2.90;;;25.70;1.00;;;;;;5114060;28;20419;-75
2023/05/07 10:29:32;;;;;;;3.53;2.57;;;25.70;1.00;;;;;;5113601;28;20419;-75
2023/05/07 10:32:04;;;;;;;4.10;2.50;;;25.70;1.00;;;;;;5114042;28;20403;-75
2023/05/07 10:34:43;;;;;;;3.00;2.80;;;25.80;1.00;;;;;;5119534;28;20433;-75
2023/05/07 10:37:10;;;;;;;2.30;2.20;;;25.80;1.00;;;;;;5113930;28;20407;-75
2023/05/07 10:39:43;;;;;;;2.53;2.43;;;25.90;1.00;;;;;;5114441;28;20567;-80
2023/05/07 10:42:14;;;;;;;3.37;2.60;;;25.70;1.00;;;;;;5113907;28;20388;-80
2023/05/07 10:44:43;;;;;;;4.20;2.80;;;25.70;1.00;;;;;;5095676;28;20489;-80
2023/05/07 10:47:31;;;;;;;2.70;2.50;;;25.80;1.00;;;;;;5113854;28;20437;-80
2023/05/07 10:50:05;;;;;;;2.50;2.30;;;26.10;1.00;;;;;;5115438;28;20448;-80
2023/05/07 10:52:43;;;;;;;4.97;2.30;;;26.20;1.00;;;;;;5118120;28;20999;-80
2023/05/07 10:55:31;;;;;;;3.33;2.37;;;26.40;1.00;;;;;;5118468;28;20409;-80
2023/05/07 10:58:36;;;;;;;2.57;2.37;;;26.70;1.00;;;;;;5117918;28;20404;-80
2023/05/07 11:01:14;;;;;;;2.90;2.63;;;26.80;1.00;;;;;;5034964;28;20539;-80
2023/05/07 11:07:29;;;;;;;2.70;2.50;;;26.80;1.00;;;;;;5054655;28;20555;-80
2023/05/07 11:10:00;;;;;;;2.53;2.33;;;26.80;1.00;;;;;;5055289;28;20420;-75
2023/05/07 11:12:38;;;;;;;2.63;2.43;;;26.80;1.00;;;;;;5054734;28;20427;-75
2023/05/07 11:15:05;;;;;;;3.00;2.80;;;26.90;1.00;;;;;;5054686;28;20445;-75
2023/05/07 11:17:34;;;;;;;3.17;2.87;;;27.00;1.00;;;;;;5054684;28;20518;-74
2023/05/07 11:20:01;;;;;;;5.93;2.30;;;27.10;1.00;;;;;;5054467;28;20498;-75
2023/05/07 11:22:39;;;;;;;2.73;2.63;;;27.10;1.00;;;;;;5054484;28;20420;-75
2023/05/07 11:25:06;;;;;;;2.50;2.30;;;27.00;1.00;;;;;;5054863;28;20432;-75
2023/05/07 11:27:32;;;;;;;4.30;2.70;;;26.70;1.00;;;;;;5054464;28;20472;-75
2023/05/07 11:29:58;;;;;;;3.33;2.43;;;26.80;1.00;;;;;;5054347;28;20485;-75
2023/05/07 11:32:29;;;;;;;3.30;2.40;;;26.90;1.00;;;;;;5053069;28;20512;-74
2023/05/07 11:34:56;;;;;;;5.40;2.13;;;26.90;1.00;;;;;;5093049;27;20473;-75
2023/05/07 11:37:23;;;;;;;8.80;2.40;;;27.00;1.00;;;;;;5137653;27;20443;-74
2023/05/07 11:39:54;;;;;;;3.03;2.70;;;27.20;1.00;;;;;;5138033;27;20435;-76
2023/05/07 11:42:30;;;;;;;2.73;2.53;;;27.20;1.00;;;;;;5137953;27;20390;-76
2023/05/07 11:44:56;;;;;;;2.43;2.23;;;27.10;1.00;;;;;;5137474;27;20397;-76
2023/05/07 11:47:22;;;;;;;2.50;2.30;;;27.10;1.00;;;;;;5137507;27;20390;-77
2023/05/07 11:49:49;;;;;;;2.10;1.90;;;27.30;1.00;;;;;;5135255;27;20808;-76
2023/05/07 11:52:25;;;;;;;6.47;2.40;;;27.40;1.00;;;;;;5119711;27;20503;-77
2023/05/07 11:54:57;;;;;;;2.17;2.00;;;27.50;1.00;;;;;;5137624;27;20402;-76
2023/05/07 11:57:43;;;;;;;2.40;2.20;;;27.60;1.00;;;;;;5137855;27;20478;-77
2023/05/07 12:00:37;;;;;;;2.00;1.80;;;27.90;1.00;;;;;;5136873;27;20510;-77
2023/05/07 12:03:07;;;;;;;3.07;1.90;;;28.10;1.00;;;;;;5131593;27;20478;-76
2023/05/07 12:05:55;;;;;;;2.00;1.90;;;28.40;1.00;;;;;;5137327;27;20865;-76
2023/05/07 12:08:31;;;;;;;6.03;2.10;;;28.60;1.00;;;;;;5137150;27;20387;-77
2023/05/07 12:10:57;;;;;;;2.30;2.07;;;28.70;1.00;;;;;;5137712;27;20400;-78
2023/05/07 12:13:26;;;;;;;3.37;2.23;;;28.70;1.00;;;;;;5137160;27;20395;-78
2023/05/07 12:15:53;;;;;;;4.80;1.70;;;28.70;1.00;;;;;;5136788;27;20183;-78
2023/05/07 12:18:26;;;;;;;3.93;1.30;;;28.80;1.00;;;;;;5136683;27;20421;-77
2023/05/07 12:20:52;;;;;;;1.30;1.20;;;28.90;1.00;;;;;;5135768;27;20444;-77
2023/05/07 12:23:31;;;;;;;3.10;1.30;;;29.10;1.00;;;;;;5118020;27;20421;-78
2023/05/07 12:25:58;;;;;;;5.73;2.03;;;29.20;1.00;;;;;;5136924;27;20188;-75
2023/05/07 12:28:24;;;;;;;1.70;1.60;;;29.00;1.00;;;;;;5136730;27;20750;-75
2023/05/07 12:30:56;;;;;;;2.57;1.70;;;29.20;1.00;;;;;;5136640;27;20394;-75
2023/05/07 12:33:26;;;;;;;2.10;1.60;;;29.30;1.00;;;;;;5134471;27;20173;-75
2023/05/07 12:35:55;;;;;;;1.47;1.37;;;29.40;1.00;;;;;;5135606;27;20430;-75
2023/05/07 12:38:21;;;;;;;1.90;1.70;;;29.60;1.00;;;;;;5136446;27;20728;-75
2023/05/07 12:40:50;;;;;;;3.57;1.90;;;29.40;1.00;;;;;;5136743;27;20921;-75
2023/05/07 12:43:18;;;;;;;3.30;2.00;;;29.30;1.00;;;;;;5136490;27;20398;-75
2023/05/07 12:45:45;;;;;;;2.77;2.00;;;29.40;1.00;;;;;;5117951;27;20418;-75
2023/05/07 12:48:10;;;;;;;7.03;2.00;;;29.50;1.00;;;;;;5133978;27;20445;-75
2023/05/07 12:50:36;;;;;;;2.30;2.00;;;29.50;1.00;;;;;;5134295;27;20454;-75
2023/05/07 12:53:07;;;;;;;2.90;1.83;;;29.40;1.00;;;;;;5135359;27;20185;-75
2023/05/07 12:55:41;;;;;;;6.33;2.00;;;29.40;1.00;;;;;;5136618;27;20640;-77
2023/05/07 12:58:08;;;;;;;2.33;1.80;;;29.40;1.00;;;;;;5136494;27;20391;-75
2023/05/07 13:00:44;;;;;;;2.07;1.60;;;29.40;1.00;;;;;;5136147;27;20935;-76
2023/05/07 13:03:22;;;;;;;4.17;1.90;;;29.60;1.00;;;;;;5136477;27;20778;-76
2023/05/07 13:05:50;;;;;;;2.30;1.57;;;29.90;1.00;;;;;;5136218;27;20410;-76
2023/05/07 13:08:31;;;;;;;1.60;1.50;;;29.80;1.00;;;;;;5134904;27;20397;-78
2023/05/07 13:11:03;;;;;;;1.90;1.80;;;29.60;1.00;;;;;;5136593;27;20395;-78
2023/05/07 13:13:33;;;;;;;3.00;1.60;;;29.40;1.00;;;;;;5116982;27;20821;-77
2023/05/07 13:16:13;;;;;;;1.70;1.60;;;29.10;1.00;;;;;;5136003;27;20468;-77
2023/05/07 13:18:40;;;;;;;1.50;1.40;;;28.80;1.00;;;;;;5135754;27;20449;-77
2023/05/07 13:21:13;;;;;;;2.70;1.97;;;28.60;1.00;;;;;;5117349;27;20505;-78
2023/05/07 13:23:39;;;;;;;4.13;1.90;;;28.60;1.00;;;;;;5125616;27;20434;-76
2023/05/07 13:26:04;;;;;;;2.93;1.90;;;28.50;1.00;;;;;;5115728;28;20383;-77
2023/05/07 13:28:31;;;;;;;1.73;1.63;;;28.60;1.00;;;;;;5099556;28;20283;-81
2023/05/07 13:31:20;;;;;;;2.30;1.60;;;28.90;1.00;;;;;;5114472;28;20640;-80
2023/05/07 13:34:01;;;;;;;1.93;1.83;;;29.10;1.00;;;;;;5114767;28;20375;-80
2023/05/07 13:36:35;;;;;;;2.40;1.63;;;29.30;1.00;;;;;;5114689;28;20415;-81
2023/05/07 13:39:01;;;;;;;1.93;1.83;;;29.20;1.00;;;;;;5114502;28;20538;-81
2023/05/07 13:41:27;;;;;;;2.50;1.30;;;29.20;1.00;;;;;;5115014;28;20874;-75
2023/05/07 13:43:52;;;;;;;1.43;1.33;;;29.30;1.00;;;;;;5114760;28;20392;-75
2023/05/07 13:46:31;;;;;;;1.73;1.50;;;29.40;1.00;;;;;;5114587;28;20196;-81
2023/05/07 13:48:57;;;;;;;3.73;1.83;;;29.30;1.00;;;;;;5114449;28;20153;-81
2023/05/07 13:51:31;;;;;;;1.87;1.77;;;29.40;1.00;;;;;;5113798;28;20457;-81
2023/05/07 13:54:31;;;;;;;2.47;1.60;;;29.40;1.00;;;;;;5096133;28;20572;-81
2023/05/07 13:57:13;;;;;;;1.80;1.60;;;29.20;1.00;;;;;;5114807;28;20402;-82
2023/05/07 13:59:43;;;;;;;2.97;1.60;;;29.00;1.00;;;;;;5114239;28;20562;-81
2023/05/07 14:02:13;;;;;;;1.80;1.70;;;28.80;1.00;;;;;;5114312;28;20380;-81
2023/05/07 14:04:55;;;;;;;3.03;2.10;;;28.70;1.00;;;;;;5114286;28;20392;-80
2023/05/07 14:07:25;;;;;;;3.10;2.40;;;28.60;1.00;;;;;;5125782;27;20495;-80
2023/05/07 14:09:56;;;;;;;7.13;2.30;;;28.30;1.00;;;;;;5134758;27;20437;-79
2023/05/07 14:12:22;;;;;;;2.40;2.20;;;28.10;1.00;;;;;;5134816;27;20786;-74
2023/05/07 14:14:49;;;;;;;7.40;2.17;;;27.90;1.00;;;;;;5132790;27;20430;-74
2023/05/07 14:17:16;;;;;;;2.40;2.20;;;27.80;1.00;;;;;;5130890;27;20375;-76
2023/05/07 14:19:44;;;;;;;3.20;2.20;;;27.70;1.00;;;;;;5123729;27;20458;-77
2023/05/07 14:22:15;;;;;;;2.00;1.90;;;27.60;1.00;;;;;;5117849;28;20427;-77
2023/05/07 14:24:40;;;;;;;2.77;2.10;;;27.60;1.00;;;;;;5120143;28;20434;-79
2023/05/07 14:27:06;;;;;;;1.97;1.87;;;27.50;1.00;;;;;;5116095;28;20936;-79
2023/05/07 14:29:32;;;;;;;2.23;2.00;;;27.50;1.00;;;;;;5113637;28;20563;-78
2023/05/07 14:31:58;;;;;;;2.13;2.03;;;27.40;1.00;;;;;;5112767;28;20182;-78
2023/05/07 14:34:23;;;;;;;2.50;2.30;;;27.40;1.00;;;;;;5113218;28;20169;-78
2023/05/07 14:36:49;;;;;;;2.27;2.10;;;27.50;1.00;;;;;;5116600;28;20175;-77
2023/05/07 14:39:15;;;;;;;2.40;2.20;;;27.50;1.00;;;;;;5119143;28;20232;-78
2023/05/07 14:41:41;;;;;;;4.90;2.40;;;27.50;1.00;;;;;;5112958;28;20181;-75
2023/05/07 14:44:06;;;;;;;3.90;2.00;;;27.50;1.00;;;;;;5113106;28;20192;-75
2023/05/07 14:46:32;;;;;;;2.60;2.33;;;27.60;1.00;;;;;;5125693;28;20184;-75
2023/05/07 14:48:58;;;;;;;2.30;2.10;;;27.60;1.00;;;;;;5131986;28;20209;-76
2023/05/07 14:51:23;;;;;;;2.27;2.17;;;27.70;1.00;;;;;;5126598;28;20223;-75
2023/05/07 14:53:50;;;;;;;2.47;2.30;;;27.70;1.00;;;;;;5113925;28;20502;-76
2023/05/07 14:56:25;;;;;;;2.50;2.30;;;27.70;1.00;;;;;;5124663;28;20192;-78
2023/05/07 14:58:55;;;;;;;2.97;2.67;;;27.70;1.00;;;;;;5134460;28;20494;-78
2023/05/07 15:01:37;;;;;;;4.00;2.33;;;27.50;1.00;;;;;;5134241;28;20439;-78
2023/05/07 15:04:04;;;;;;;2.70;2.50;;;27.40;1.00;;;;;;5113883;28;20394;-78
2023/05/07 15:07:01;;;;;;;2.90;2.10;;;27.20;1.00;;;;;;5113381;28;20431;-78
2023/05/07 15:09:37;;;;;;;2.73;2.53;;;27.10;1.00;;;;;;5113553;28;20391;-78
2023/05/07 15:12:03;;;;;;;4.10;2.73;;;27.00;1.00;;;;;;5132164;28;20398;-75
2023/05/07 15:14:29;;;;;;;2.17;2.07;;;26.80;1.00;;;;;;5107737;28;20464;-75
2023/05/07 15:16:55;;;;;;;3.00;2.30;;;26.60;1.00;;;;;;5123111;28;20860;-74
2023/05/07 15:19:22;;;;;;;3.23;2.07;;;26.40;1.00;;;;;;5113557;28;20203;-75
2023/05/07 15:21:47;;;;;;;2.70;2.17;;;26.20;1.00;;;;;;5113663;28;20159;-75
2023/05/07 15:24:19;;;;;;;2.63;2.40;;;25.90;1.00;;;;;;5114532;28;20437;-76
2023/05/07 15:26:51;;;;;;;10.30;2.20;;;25.60;1.00;;;;;;5116299;28;20504;-79
2023/05/07 15:29:17;;;;;;;2.83;2.63;;;25.60;1.00;;;;;;5095130;28;20422;-77
2023/05/07 15:31:43;;;;;;;2.40;2.20;;;25.50;1.00;;;;;;5113393;28;20405;-75
2023/05/07 15:34:20;;;;;;;6.20;2.23;;;25.40;1.00;;;;;;5129571;28;20198;-76
2023/05/07 15:36:56;;;;;;;2.30;2.20;;;25.30;1.00;;;;;;5137653;27;20657;-78
2023/05/07 15:39:22;;;;;;;2.50;2.30;;;25.10;1.00;;;;;;5135872;27;20493;-76
2023/05/07 15:41:48;;;;;;;2.23;2.10;;;25.00;1.00;;;;;;5138485;27;20397;-75
2023/05/07 15:44:14;;;;;;;2.67;2.30;;;24.80;1.00;;;;;;5137162;27;20255;-75
2023/05/07 15:46:39;;;;;;;2.53;2.40;;;24.70;1.00;;;;;;5135708;27;20538;-75
2023/05/07 15:49:05;;;;;;;3.77;3.00;;;24.50;1.00;;;;;;5132763;27;20505;-75
2023/05/07 15:51:33;;;;;;;3.17;2.37;;;24.40;1.00;;;;;;5116508;28;20290;-75
2023/05/07 15:53:59;;;;;;;4.33;2.43;;;24.30;1.00;;;;;;5116699;28;20247;-75
2023/05/07 15:56:25;;;;;;;2.37;2.17;;;24.20;1.00;;;;;;5123644;27;20527;-73
2023/05/07 15:58:52;;;;;;;2.43;2.23;;;24.00;1.00;;;;;;5125389;27;20291;-75
2023/05/07 16:01:18;;;;;;;3.43;2.40;;;24.00;1.00;;;;;;5116567;28;20161;-75
2023/05/07 16:03:43;;;;;;;2.93;2.50;;;23.90;1.00;;;;;;5099971;27;20446;-75
2023/05/07 16:06:11;;;;;;;2.60;2.40;;;23.90;1.00;;;;;;5128488;27;20186;-76
2023/05/07 16:08:39;;;;;;;2.73;2.53;;;23.80;1.00;;;;;;5112022;27;20206;-76
2023/05/07 16:11:05;;;;;;;2.17;2.07;;;23.80;1.00;;;;;;5117964;27;20439;-75
2023/05/07 16:13:43;;;;;;;2.67;2.47;;;23.70;1.00;;;;;;5137600;27;20385;-77
2023/05/07 16:16:20;;;;;;;3.43;2.47;;;23.80;1.00;;;;;;5118302;27;20425;-78
2023/05/07 16:18:56;;;;;;;5.53;2.13;;;23.70;1.00;;;;;;5116074;28;20913;-76
2023/05/07 16:21:32;;;;;;;3.37;2.30;;;23.60;1.00;;;;;;5116782;28;20886;-85
2023/05/07 16:24:32;;;;;;;5.30;2.60;;;23.60;1.00;;;;;;5135649;27;20412;-85